Time;durP1;ratioP1;P1;durP2;ratioP2;P2;SDS_P1;SDS_P2;PMS_P1;PMS_P2;Temp;Humidity;BMP_temperature;BMP_pressure;BME280_temperature;BME280_humidity;BME280_pressure;Samples;Min_cycle;Max_cycle;Signal;HPM_P1;HPM_P2
2023/05/18 00:02:00;;;;;;;7.65;2.50;;;6.30;99.90;;;;;;5112279;27;20522;-90
2023/05/18 00:04:27;;;;;;;8.13;2.65;;;6.50;99.90;;;;;;5113762;27;20389;-91
2023/05/18 00:06:57;;;;;;;6.95;2.03;;;6.40;99.90;;;;;;5111871;27;20493;-89
2023/05/18 00:09:26;;;;;;;7.00;2.30;;;6.30;99.90;;;;;;5114157;27;20387;-91
2023/05/18 00:11:52;;;;;;;6.47;2.53;;;6.30;99.90;;;;;;5113013;27;20787;-90
2023/05/18 00:14:19;;;;;;;7.25;2.72;;;6.30;99.90;;;;;;5113468;27;20441;-91
2023/05/18 00:16:44;;;;;;;6.03;2.30;;;6.20;99.90;;;;;;5113444;27;20411;-90
2023/05/18 00:19:13;;;;;;;6.65;2.10;;;6.30;99.90;;;;;;5112384;27;20421;-90
2023/05/18 00:21:40;;;;;;;7.45;2.28;;;6.20;99.90;;;;;;5114202;27;20436;-90
2023/05/18 00:24:09;;;;;;;7.78;2.40;;;6.20;99.90;;;;;;5111749;27;20481;-90
2023/05/18 00:26:38;;;;;;;8.38;3.05;;;6.10;99.90;;;;;;5114036;27;20484;-91
2023/05/18 00:29:04;;;;;;;7.80;2.50;;;6.10;99.90;;;;;;5112263;27;20748;-89
2023/05/18 00:31:35;;;;;;;9.43;3.00;;;6.10;99.90;;;;;;5113374;27;20397;-91
2023/05/18 00:34:05;;;;;;;6.72;2.38;;;6.10;99.90;;;;;;5114110;27;20401;-90
2023/05/18 00:36:31;;;;;;;6.90;2.60;;;6.10;99.90;;;;;;5112379;27;20446;-91
2023/05/18 00:38:57;;;;;;;6.85;2.90;;;6.10;99.90;;;;;;5113713;27;20423;-90
2023/05/18 00:41:24;;;;;;;8.05;2.83;;;6.10;99.90;;;;;;5114147;27;20401;-91
2023/05/18 00:43:49;;;;;;;6.03;2.25;;;6.10;99.90;;;;;;5117821;27;20443;-90
2023/05/18 00:46:15;;;;;;;7.47;3.03;;;6.10;99.90;;;;;;5116467;27;20464;-90
2023/05/18 00:48:41;;;;;;;7.70;2.83;;;6.10;99.90;;;;;;5117463;27;20408;-90
2023/05/18 00:51:06;;;;;;;6.70;2.87;;;6.10;99.90;;;;;;5117306;27;20831;-90
2023/05/18 00:53:32;;;;;;;6.97;2.80;;;6.10;99.90;;;;;;5116413;27;20400;-90
2023/05/18 00:55:58;;;;;;;10.15;3.55;;;6.10;99.90;;;;;;5117690;27;20739;-91
2023/05/18 00:58:25;;;;;;;8.32;3.00;;;6.20;99.90;;;;;;5115545;27;20496;-91
2023/05/18 01:00:52;;;;;;;8.05;3.13;;;6.20;99.90;;;;;;5117754;27;20389;-90
2023/05/18 01:03:19;;;;;;;7.07;3.08;;;6.20;99.90;;;;;;5115855;27;20403;-89
2023/05/18 01:05:48;;;;;;;5.97;2.83;;;6.20;99.90;;;;;;5117632;27;20450;-90
2023/05/18 01:08:15;;;;;;;8.43;3.53;;;6.10;99.90;;;;;;5116172;27;20389;-90
2023/05/18 01:10:43;;;;;;;8.38;3.40;;;6.10;99.90;;;;;;5116333;27;20465;-91
2023/05/18 01:13:17;;;;;;;8.35;3.20;;;6.10;99.90;;;;;;5117131;27;20404;-90
2023/05/18 01:15:47;;;;;;;7.78;2.78;;;6.10;99.90;;;;;;5115415;27;20396;-90
2023/05/18 01:18:27;;;;;;;8.50;3.60;;;6.10;99.90;;;;;;5117248;27;20385;-90
2023/05/18 01:21:24;;;;;;;6.60;2.83;;;6.00;99.90;;;;;;5115578;27;20436;-90
2023/05/18 01:24:17;;;;;;;8.35;2.70;;;6.00;99.90;;;;;;5112745;27;20429;-90
2023/05/18 01:26:46;;;;;;;9.25;3.40;;;6.00;99.90;;;;;;5113854;27;20407;-90
2023/05/18 01:29:14;;;;;;;7.47;3.03;;;6.10;99.90;;;;;;5111564;27;20905;-90
2023/05/18 01:31:40;;;;;;;8.95;3.35;;;6.10;99.90;;;;;;5113794;27;20405;-89
2023/05/18 01:34:05;;;;;;;9.23;3.50;;;6.10;99.90;;;;;;5111881;27;20395;-90
2023/05/18 01:36:31;;;;;;;7.82;3.88;;;6.10;99.90;;;;;;5113130;27;20415;-90
2023/05/18 01:39:00;;;;;;;7.10;2.80;;;6.10;99.90;;;;;;5112711;27;20513;-90
2023/05/18 01:41:28;;;;;;;9.30;3.75;;;6.20;99.90;;;;;;5111793;27;20402;-90
2023/05/18 01:44:21;;;;;;;8.50;4.17;;;6.20;99.90;;;;;;5112960;27;20391;-90
2023/05/18 01:47:14;;;;;;;9.27;4.00;;;6.30;99.90;;;;;;5111644;27;20431;-89
2023/05/18 01:50:01;;;;;;;8.70;4.23;;;6.40;99.90;;;;;;5112151;27;20403;-90
2023/05/18 01:52:38;;;;;;;7.53;3.90;;;6.40;99.90;;;;;;5112507;27;20398;-90
2023/05/18 01:55:06;;;;;;;8.65;4.30;;;6.50;99.90;;;;;;5110787;27;20790;-89
2023/05/18 01:57:35;;;;;;;10.25;4.85;;;6.50;99.90;;;;;;5113151;27;20884;-91
2023/05/18 02:00:04;;;;;;;10.02;4.60;;;6.60;99.90;;;;;;5111466;27;20430;-90
2023/05/18 02:02:30;;;;;;;8.82;4.90;;;6.70;99.90;;;;;;5112711;27;20398;-90
2023/05/18 02:04:56;;;;;;;8.10;4.20;;;6.60;99.90;;;;;;5112743;27;20833;-90
2023/05/18 02:07:21;;;;;;;8.67;4.00;;;6.70;99.90;;;;;;5111440;27;20451;-90
2023/05/18 02:09:47;;;;;;;7.25;3.67;;;6.70;99.90;;;;;;5113091;27;20395;-90
2023/05/18 02:12:12;;;;;;;9.52;4.50;;;6.70;99.90;;;;;;5110898;27;20399;-90
2023/05/18 02:14:38;;;;;;;7.53;3.90;;;6.80;99.90;;;;;;5113218;27;20431;-90
2023/05/18 02:17:05;;;;;;;8.45;4.47;;;6.80;99.90;;;;;;5110817;27;20391;-90
2023/05/18 02:19:32;;;;;;;8.77;4.35;;;6.80;99.90;;;;;;5112079;27;20490;-89
2023/05/18 02:21:58;;;;;;;8.60;4.10;;;6.80;99.90;;;;;;5111505;27;20394;-90
2023/05/18 02:24:23;;;;;;;8.15;4.78;;;6.70;99.90;;;;;;5111415;27;20399;-91
2023/05/18 02:26:52;;;;;;;8.10;4.00;;;6.80;99.90;;;;;;5112281;27;20664;-90
2023/05/18 02:29:18;;;;;;;9.23;4.60;;;6.80;99.90;;;;;;5110655;27;20403;-90
2023/05/18 02:31:43;;;;;;;9.07;4.65;;;7.10;99.90;;;;;;5112497;27;20406;-91
2023/05/18 02:34:09;;;;;;;6.00;4.10;;;7.00;99.90;;;;;;5110357;27;20395;-90
2023/05/18 02:36:41;;;;;;;7.50;4.05;;;6.90;99.90;;;;;;5112191;27;20455;-90
2023/05/18 02:39:08;;;;;;;8.40;3.83;;;6.90;99.90;;;;;;5110971;27;20462;-90
2023/05/18 02:41:35;;;;;;;9.20;4.00;;;7.00;99.90;;;;;;5111101;27;20394;-89
2023/05/18 02:44:02;;;;;;;9.13;3.83;;;7.20;99.90;;;;;;5111985;27;20394;-90
2023/05/18 02:46:28;;;;;;;6.57;4.00;;;6.90;99.90;;;;;;5110360;27;20395;-91
2023/05/18 02:48:54;;;;;;;9.73;3.97;;;7.10;99.90;;;;;;5112068;27;20402;-90
2023/05/18 02:51:20;;;;;;;7.75;4.00;;;7.10;99.90;;;;;;5110249;27;20769;-91
2023/05/18 02:53:46;;;;;;;7.35;4.00;;;7.00;99.90;;;;;;5112414;27;20406;-90
2023/05/18 02:56:12;;;;;;;7.68;4.60;;;7.00;99.90;;;;;;5110382;27;20492;-90
2023/05/18 02:58:38;;;;;;;8.20;3.80;;;7.00;99.90;;;;;;5111366;27;20784;-90
2023/05/18 03:01:06;;;;;;;10.60;4.15;;;7.10;99.90;;;;;;5111778;27;20485;-90
2023/05/18 03:03:34;;;;;;;7.57;3.92;;;7.00;99.90;;;;;;5109520;27;20705;-90
2023/05/18 03:06:04;;;;;;;11.02;4.53;;;7.00;99.90;;;;;;5111492;27;20398;-91
2023/05/18 03:08:31;;;;;;;9.40;3.43;;;7.00;99.90;;;;;;5110245;27;20828;-90
2023/05/18 03:10:57;;;;;;;8.30;3.75;;;7.00;99.90;;;;;;5111652;27;20478;-90
2023/05/18 03:13:24;;;;;;;8.55;4.40;;;7.00;99.90;;;;;;5109931;27;20399;-90
2023/05/18 03:15:50;;;;;;;7.22;4.10;;;7.10;99.90;;;;;;5111286;27;20481;-91
2023/05/18 03:18:17;;;;;;;6.28;3.83;;;7.10;99.90;;;;;;5110917;27;20395;-90
2023/05/18 03:20:43;;;;;;;7.87;4.80;;;7.10;99.90;;;;;;5110165;27;20417;-91
2023/05/18 03:23:09;;;;;;;8.57;4.67;;;7.10;99.90;;;;;;5111550;27;20411;-90
2023/05/18 03:25:36;;;;;;;10.48;4.20;;;7.10;99.90;;;;;;5109207;27;20399;-91
2023/05/18 03:28:05;;;;;;;7.95;4.07;;;7.10;99.90;;;;;;5111358;27;20394;-90
2023/05/18 03:30:34;;;;;;;6.75;4.00;;;7.20;99.90;;;;;;5109483;27;20435;-91
2023/05/18 03:33:00;;;;;;;10.32;4.20;;;7.20;99.90;;;;;;5110983;27;20429;-90
2023/05/18 03:35:26;;;;;;;8.03;4.17;;;7.20;99.90;;;;;;5110310;27;20805;-90
2023/05/18 03:37:52;;;;;;;7.40;3.37;;;7.20;99.90;;;;;;5110044;27;20503;-91
2023/05/18 03:40:18;;;;;;;9.98;4.05;;;7.20;99.90;;;;;;5110820;27;21023;-90
2023/05/18 03:42:44;;;;;;;7.13;4.20;;;7.20;99.90;;;;;;5109380;27;20397;-91
2023/05/18 03:45:10;;;;;;;7.77;4.40;;;7.40;99.90;;;;;;5111542;27;20386;-91
2023/05/18 03:47:37;;;;;;;9.35;4.18;;;7.20;99.90;;;;;;5108942;27;20403;-90
2023/05/18 03:50:04;;;;;;;8.73;3.77;;;7.20;99.90;;;;;;5110878;27;20873;-90
2023/05/18 03:52:32;;;;;;;8.95;4.38;;;7.20;99.90;;;;;;5109845;27;21158;-90
2023/05/18 03:54:59;;;;;;;11.00;4.30;;;7.30;99.90;;;;;;5110813;27;20414;-90
2023/05/18 03:57:25;;;;;;;9.07;4.20;;;7.30;99.90;;;;;;5111318;27;20395;-90
2023/05/18 03:59:51;;;;;;;9.13;4.00;;;7.20;99.90;;;;;;5109030;27;20444;-91
2023/05/18 04:02:17;;;;;;;9.00;3.97;;;7.30;99.90;;;;;;5110953;27;20846;-90
2023/05/18 04:04:46;;;;;;;6.63;4.10;;;7.30;99.90;;;;;;5108592;27;20462;-91
2023/05/18 04:07:15;;;;;;;8.63;4.10;;;7.30;99.90;;;;;;5110629;27;20394;-90
2023/05/18 04:09:41;;;;;;;8.20;3.95;;;7.30;99.90;;;;;;5108908;28;20401;-90
2023/05/18 04:12:08;;;;;;;7.93;3.95;;;7.30;99.90;;;;;;5110315;27;20399;-90
2023/05/18 04:14:34;;;;;;;7.03;3.95;;;7.40;99.90;;;;;;5109740;28;20394;-90
2023/05/18 04:17:04;;;;;;;7.57;3.85;;;7.50;99.90;;;;;;5109531;27;20482;-91
2023/05/18 04:19:33;;;;;;;7.45;3.97;;;7.50;99.90;;;;;;5110900;28;20946;-90
2023/05/18 04:22:03;;;;;;;8.75;4.78;;;7.50;99.90;;;;;;5108291;28;20470;-91
2023/05/18 04:24:31;;;;;;;8.35;3.97;;;7.50;99.90;;;;;;5110431;28;21138;-91
2023/05/18 04:26:58;;;;;;;6.55;3.10;;;7.70;99.90;;;;;;5108908;28;20449;-91
2023/05/18 04:29:23;;;;;;;6.13;3.70;;;7.50;99.90;;;;;;5110245;28;20401;-90
2023/05/18 04:31:49;;;;;;;8.82;4.00;;;7.50;99.90;;;;;;5110136;28;20394;-91
2023/05/18 04:34:16;;;;;;;6.68;3.17;;;7.60;99.90;;;;;;5108731;28;20402;-91
2023/05/18 04:36:43;;;;;;;6.25;3.53;;;7.80;99.90;;;;;;5110524;28;20410;-90
2023/05/18 04:39:09;;;;;;;5.90;3.37;;;7.70;99.90;;;;;;5108531;28;20430;-90
2023/05/18 04:41:35;;;;;;;8.73;3.65;;;7.70;99.90;;;;;;5110787;28;20811;-91
2023/05/18 04:44:02;;;;;;;7.88;3.80;;;7.90;99.90;;;;;;5108404;28;20390;-90
2023/05/18 04:46:28;;;;;;;8.77;3.00;;;8.10;99.90;;;;;;5110594;28;20815;-90
2023/05/18 04:48:56;;;;;;;6.17;3.00;;;7.80;99.90;;;;;;5109443;28;20439;-90
2023/05/18 04:51:23;;;;;;;6.40;3.63;;;7.80;99.90;;;;;;5109505;28;20440;-91
2023/05/18 04:53:50;;;;;;;8.05;3.50;;;7.90;99.90;;;;;;5110432;28;20845;-91
2023/05/18 04:56:16;;;;;;;6.65;2.63;;;7.90;99.90;;;;;;5108095;28;20443;-91
2023/05/18 04:58:44;;;;;;;6.50;2.72;;;8.10;99.90;;;;;;5110225;28;20414;-90
2023/05/18 05:01:13;;;;;;;7.32;2.72;;;8.10;99.90;;;;;;5108514;28;20463;-90
2023/05/18 05:03:40;;;;;;;7.57;2.70;;;8.50;99.90;;;;;;5110494;28;20799;-91
2023/05/18 05:06:05;;;;;;;6.82;2.90;;;8.20;99.90;;;;;;5109189;28;20422;-91
2023/05/18 05:08:31;;;;;;;9.15;2.97;;;8.30;99.90;;;;;;5109534;28;20398;-90
2023/05/18 05:10:56;;;;;;;7.57;2.70;;;8.60;99.90;;;;;;5109959;28;20434;-90
2023/05/18 05:13:22;;;;;;;6.22;2.22;;;8.40;99.90;;;;;;5108703;28;20911;-90
2023/05/18 05:15:48;;;;;;;6.97;3.17;;;8.60;99.90;;;;;;5110687;28;20493;-91
2023/05/18 05:18:13;;;;;;;6.53;2.70;;;8.60;99.90;;;;;;5108443;28;20415;-91
2023/05/18 05:20:39;;;;;;;6.80;2.90;;;8.60;99.90;;;;;;5110246;28;20387;-90
2023/05/18 05:23:05;;;;;;;8.93;4.10;;;8.60;99.90;;;;;;5107965;28;20410;-90
2023/05/18 05:25:30;;;;;;;8.85;4.75;;;8.70;99.90;;;;;;5109870;27;20648;-91
2023/05/18 05:27:56;;;;;;;7.88;3.80;;;8.80;99.90;;;;;;5112104;27;20421;-90
2023/05/18 05:30:21;;;;;;;8.37;3.50;;;8.90;99.90;;;;;;5112587;27;20406;-90
2023/05/18 05:32:47;;;;;;;10.05;3.30;;;9.00;99.90;;;;;;5113562;27;20395;-90
2023/05/18 05:35:13;;;;;;;6.50;2.83;;;9.00;99.90;;;;;;5111656;27;20415;-91
2023/05/18 05:37:38;;;;;;;7.40;3.22;;;9.30;99.90;;;;;;5114137;27;20730;-89
2023/05/18 05:40:05;;;;;;;7.82;2.80;;;9.20;99.90;;;;;;5111611;27;20427;-91
2023/05/18 05:42:31;;;;;;;8.45;2.78;;;9.20;99.90;;;;;;5113426;27;21029;-91
2023/05/18 05:44:56;;;;;;;7.25;2.65;;;9.40;99.90;;;;;;5112240;27;20766;-90
2023/05/18 05:47:22;;;;;;;6.57;2.58;;;9.30;99.90;;;;;;5112904;27;20398;-91
2023/05/18 05:49:48;;;;;;;7.33;2.20;;;9.40;99.90;;;;;;5112930;27;20407;-90
2023/05/18 05:52:13;;;;;;;6.82;2.50;;;9.40;99.90;;;;;;5111858;27;20395;-91
2023/05/18 05:54:40;;;;;;;5.75;1.80;;;9.50;99.90;;;;;;5113646;27;20406;-91
2023/05/18 05:57:06;;;;;;;7.45;1.90;;;9.50;99.90;;;;;;5111132;27;20386;-91
2023/05/18 05:59:31;;;;;;;9.02;2.10;;;9.60;99.90;;;;;;5113129;27;20433;-91
2023/05/18 06:01:57;;;;;;;8.77;2.30;;;9.90;99.90;;;;;;5111100;27;20402;-91
2023/05/18 06:04:23;;;;;;;8.20;1.50;;;9.80;99.90;;;;;;5112787;27;20418;-91
2023/05/18 06:06:48;;;;;;;7.25;1.58;;;9.90;99.90;;;;;;5111962;27;20410;-91
2023/05/18 06:09:14;;;;;;;7.30;2.30;;;9.90;99.90;;;;;;5112154;27;20406;-91
2023/05/18 06:11:40;;;;;;;8.80;2.17;;;10.00;99.90;;;;;;5112641;27;20411;-91
2023/05/18 06:14:06;;;;;;;6.97;1.95;;;10.20;99.90;;;;;;5110854;27;20406;-91
2023/05/18 06:16:32;;;;;;;7.45;1.88;;;10.30;99.90;;;;;;5112654;27;20423;-91
2023/05/18 06:18:57;;;;;;;6.67;1.30;;;10.40;99.90;;;;;;5110892;27;20456;-92
2023/05/18 06:21:23;;;;;;;5.87;1.30;;;10.50;99.90;;;;;;5112898;27;20411;-92
2023/05/18 06:23:49;;;;;;;8.38;1.55;;;10.60;99.10;;;;;;5110837;27;20539;-91
2023/05/18 06:26:15;;;;;;;6.35;1.10;;;10.90;99.90;;;;;;5112430;27;20408;-91
2023/05/18 06:28:41;;;;;;;6.82;1.08;;;10.80;99.90;;;;;;5111709;27;20426;-91
2023/05/18 06:31:07;;;;;;;6.75;1.40;;;11.00;99.90;;;;;;5111272;27;20446;-91
2023/05/18 06:33:33;;;;;;;5.67;1.10;;;11.20;97.60;;;;;;5112868;27;20405;-91
2023/05/18 06:35:59;;;;;;;4.83;0.80;;;11.30;94.10;;;;;;5110258;27;20434;-90
2023/05/18 06:38:24;;;;;;;7.55;0.80;;;11.50;90.50;;;;;;5110897;27;20481;-91
2023/05/18 06:40:50;;;;;;;6.63;1.20;;;11.30;79.80;;;;;;5110847;27;20410;-91
2023/05/18 06:43:16;;;;;;;5.87;1.27;;;11.70;97.50;;;;;;5112062;27;20410;-90
2023/05/18 06:45:42;;;;;;;5.67;1.07;;;11.40;96.90;;;;;;5111218;27;20535;-90
2023/05/18 06:48:07;;;;;;;7.50;1.02;;;11.70;95.10;;;;;;5111768;27;20398;-92
2023/05/18 06:50:33;;;;;;;5.50;1.00;;;12.00;94.10;;;;;;5111751;27;20900;-90
2023/05/18 06:53:01;;;;;;;6.00;1.02;;;12.00;86.90;;;;;;5110853;27;20426;-92
2023/05/18 06:55:26;;;;;;;6.80;0.90;;;12.00;69.00;;;;;;5111892;27;20405;-91
2023/05/18 06:57:55;;;;;;;6.43;0.73;;;12.00;76.60;;;;;;5110477;27;20745;-91
2023/05/18 07:00:21;;;;;;;9.43;0.85;;;12.10;75.50;;;;;;5111742;27;20431;-92
2023/05/18 07:02:46;;;;;;;6.32;0.95;;;12.20;83.40;;;;;;5110272;27;20405;-90
2023/05/18 07:05:12;;;;;;;5.70;1.10;;;12.40;80.70;;;;;;5111169;27;20410;-93
2023/05/18 07:07:37;;;;;;;6.35;0.90;;;12.50;80.00;;;;;;5111069;27;20398;-90
2023/05/18 07:10:03;;;;;;;5.63;0.80;;;12.60;76.50;;;;;;5110524;27;20398;-92
2023/05/18 07:12:29;;;;;;;8.15;1.00;;;12.70;75.70;;;;;;5111553;27;20394;-91
2023/05/18 07:14:55;;;;;;;7.00;0.75;;;12.90;76.20;;;;;;5109765;27;21071;-91
2023/05/18 07:17:21;;;;;;;6.33;0.90;;;13.00;76.80;;;;;;5112029;27;20409;-91
2023/05/18 07:19:47;;;;;;;5.57;1.00;;;13.20;77.40;;;;;;5109468;27;20924;-90
2023/05/18 07:22:12;;;;;;;5.55;0.90;;;13.20;73.70;;;;;;5111561;27;20390;-91
2023/05/18 07:24:38;;;;;;;6.13;0.70;;;13.20;71.20;;;;;;5109943;27;20398;-91
2023/05/18 07:27:04;;;;;;;6.20;0.90;;;13.00;64.00;;;;;;5111357;27;20403;-92
2023/05/18 07:29:30;;;;;;;6.67;1.03;;;13.00;68.60;;;;;;5111246;27;20428;-91
2023/05/18 07:31:56;;;;;;;5.77;0.90;;;13.20;69.60;;;;;;5110031;27;20406;-91
2023/05/18 07:34:22;;;;;;;6.82;1.25;;;13.10;68.30;;;;;;5111193;27;20401;-91
2023/05/18 07:36:48;;;;;;;6.75;1.20;;;13.10;72.80;;;;;;5109167;27;20406;-91
2023/05/18 07:39:18;;;;;;;5.95;1.00;;;13.40;72.30;;;;;;5111016;27;20937;-91
2023/05/18 07:41:45;;;;;;;6.75;0.98;;;13.20;71.20;;;;;;5109275;27;20395;-91
2023/05/18 07:44:11;;;;;;;6.88;1.20;;;13.20;69.30;;;;;;5111026;27;20406;-90
2023/05/18 07:46:36;;;;;;;5.65;0.93;;;13.10;74.00;;;;;;5110356;27;20410;-92
2023/05/18 07:49:02;;;;;;;5.37;0.87;;;13.10;73.20;;;;;;5109440;28;20407;-91
2023/05/18 07:51:28;;;;;;;6.05;1.20;;;13.30;68.60;;;;;;5110629;27;20445;-91
2023/05/18 07:53:54;;;;;;;6.43;1.33;;;13.40;67.40;;;;;;5109346;28;20474;-90
2023/05/18 07:56:21;;;;;;;6.10;1.00;;;13.40;67.00;;;;;;5110879;27;20462;-91
2023/05/18 07:58:47;;;;;;;6.50;1.10;;;13.30;66.40;;;;;;5109172;27;20789;-91
2023/05/18 08:01:12;;;;;;;6.90;1.30;;;13.40;72.30;;;;;;5111161;27;20406;-90
2023/05/18 08:03:38;;;;;;;4.93;1.20;;;13.60;69.60;;;;;;5109516;27;20753;-92
2023/05/18 08:06:03;;;;;;;6.43;1.10;;;14.00;64.80;;;;;;5110268;27;20407;-90
2023/05/18 08:08:29;;;;;;;5.80;1.00;;;13.60;67.40;;;;;;5110563;28;20935;-92
2023/05/18 08:10:55;;;;;;;6.55;1.20;;;13.70;63.70;;;;;;5109101;27;20415;-91
2023/05/18 08:13:21;;;;;;;6.88;1.10;;;13.90;61.80;;;;;;5110897;27;20398;-91
2023/05/18 08:15:47;;;;;;;7.80;1.30;;;13.80;61.70;;;;;;5108506;27;20408;-90
2023/05/18 08:18:12;;;;;;;6.25;1.33;;;13.80;62.70;;;;;;5110634;28;20403;-91
2023/05/18 08:20:38;;;;;;;4.85;0.98;;;13.70;60.30;;;;;;5108797;28;20394;-91
2023/05/18 08:23:04;;;;;;;6.05;1.30;;;13.90;65.00;;;;;;5110428;28;20482;-92
2023/05/18 08:25:30;;;;;;;6.30;1.20;;;13.70;66.90;;;;;;5109564;28;20510;-91
2023/05/18 08:27:55;;;;;;;7.00;1.70;;;13.90;66.80;;;;;;5109359;28;20905;-91
2023/05/18 08:30:21;;;;;;;8.67;1.60;;;13.80;63.90;;;;;;5110492;28;20794;-92
2023/05/18 08:32:47;;;;;;;6.72;1.23;;;14.00;68.40;;;;;;5108628;28;20714;-91
2023/05/18 08:35:13;;;;;;;7.30;1.42;;;14.00;70.70;;;;;;5110383;28;20478;-91
2023/05/18 08:37:38;;;;;;;6.67;1.20;;;14.10;66.20;;;;;;5108441;28;20449;-90
2023/05/18 08:40:07;;;;;;;5.82;1.23;;;14.20;64.30;;;;;;5110668;28;20476;-90
2023/05/18 08:42:38;;;;;;;5.53;1.20;;;14.10;61.70;;;;;;5109012;28;20459;-90
2023/05/18 08:45:12;;;;;;;6.70;1.10;;;14.20;58.90;;;;;;5109395;28;20501;-90
2023/05/18 08:47:39;;;;;;;5.33;0.93;;;14.20;61.50;;;;;;5110388;28;20434;-91
2023/05/18 08:50:12;;;;;;;5.85;1.00;;;14.10;59.90;;;;;;5125524;28;20395;-92
2023/05/18 08:52:45;;;;;;;6.03;1.27;;;14.40;62.10;;;;;;5110718;28;20744;-90
2023/05/18 08:55:12;;;;;;;5.57;1.10;;;14.60;62.90;;;;;;5108161;28;20395;-91
2023/05/18 08:57:38;;;;;;;6.47;1.20;;;14.60;59.20;;;;;;5110160;28;20399;-91
2023/05/18 09:00:05;;;;;;;6.90;1.20;;;14.80;59.70;;;;;;5109163;28;20425;-91
2023/05/18 09:02:32;;;;;;;4.88;1.08;;;14.90;59.30;;;;;;5111612;27;20391;-91
2023/05/18 09:04:58;;;;;;;5.78;1.00;;;15.10;58.50;;;;;;5114410;27;20964;-90
2023/05/18 09:07:26;;;;;;;6.40;1.17;;;15.40;58.50;;;;;;5112262;27;20395;-92
2023/05/18 09:09:55;;;;;;;4.72;1.20;;;15.60;56.90;;;;;;5114292;27;20434;-91
2023/05/18 09:12:22;;;;;;;6.10;1.30;;;16.00;54.70;;;;;;5111936;27;20391;-92
2023/05/18 09:14:47;;;;;;;7.32;1.23;;;16.00;56.00;;;;;;5114025;27;20739;-90
2023/05/18 09:17:13;;;;;;;7.63;1.53;;;16.10;54.70;;;;;;5112954;27;20395;-91
2023/05/18 09:19:39;;;;;;;4.75;1.30;;;16.50;55.60;;;;;;5112924;27;20433;-91
2023/05/18 09:22:05;;;;;;;6.32;1.00;;;16.50;55.90;;;;;;5113430;27;20405;-91
2023/05/18 09:24:32;;;;;;;7.28;1.35;;;16.40;54.60;;;;;;5111626;27;20531;-92
2023/05/18 09:26:58;;;;;;;5.88;1.20;;;16.30;50.60;;;;;;5114111;27;20390;-91
2023/05/18 09:29:24;;;;;;;4.97;1.03;;;16.40;52.90;;;;;;5111785;27;20403;-90
2023/05/18 09:31:50;;;;;;;5.13;0.98;;;16.50;51.00;;;;;;5113754;27;20395;-91
2023/05/18 09:34:20;;;;;;;5.05;0.90;;;16.50;52.00;;;;;;5111846;27;20495;-92
2023/05/18 09:36:51;;;;;;;4.85;1.10;;;16.80;50.30;;;;;;5113215;27;20865;-90
2023/05/18 09:39:17;;;;;;;5.13;1.20;;;16.60;50.60;;;;;;5113060;27;20422;-91
2023/05/18 09:41:43;;;;;;;5.93;1.30;;;16.70;51.20;;;;;;5112215;27;21209;-91
2023/05/18 09:44:11;;;;;;;5.77;1.40;;;16.60;51.10;;;;;;5113450;27;20474;-92
2023/05/18 09:46:38;;;;;;;6.90;2.47;;;16.90;50.90;;;;;;5111365;27;20391;-91
2023/05/18 09:49:05;;;;;;;5.45;1.63;;;16.50;50.20;;;;;;5113093;27;20877;-90
2023/05/18 09:51:37;;;;;;;6.22;1.60;;;16.50;50.80;;;;;;5111122;27;20428;-91
2023/05/18 09:54:05;;;;;;;4.55;1.08;;;16.20;53.30;;;;;;5112676;27;20456;-91
2023/05/18 09:56:34;;;;;;;6.82;1.30;;;16.40;53.00;;;;;;5112946;27;20803;-91
2023/05/18 09:59:10;;;;;;;4.72;1.05;;;16.30;51.60;;;;;;5111787;27;20461;-91
2023/05/18 10:01:40;;;;;;;5.93;1.48;;;16.20;53.80;;;;;;5113061;27;20923;-91
2023/05/18 10:04:06;;;;;;;5.55;1.25;;;16.40;53.70;;;;;;5110886;27;20912;-91
2023/05/18 10:06:32;;;;;;;5.33;1.10;;;16.40;52.60;;;;;;5112531;27;20415;-92
2023/05/18 10:09:00;;;;;;;6.35;1.02;;;16.40;53.80;;;;;;5111130;27;20840;-91
2023/05/18 10:11:30;;;;;;;5.30;1.20;;;16.50;53.30;;;;;;5112221;27;20406;-91
2023/05/18 10:13:57;;;;;;;7.47;1.60;;;16.90;51.00;;;;;;5112534;27;20397;-91
2023/05/18 10:16:24;;;;;;;6.55;1.45;;;16.70;52.70;;;;;;5111045;27;20449;-91
2023/05/18 10:18:53;;;;;;;5.65;1.63;;;16.70;51.90;;;;;;5112955;27;20457;-91
2023/05/18 10:21:20;;;;;;;5.63;1.42;;;16.70;51.40;;;;;;5110901;27;20478;-90
2023/05/18 10:23:48;;;;;;;4.47;1.40;;;16.90;51.70;;;;;;5115616;27;20400;-92
2023/05/18 10:26:20;;;;;;;5.28;1.20;;;16.90;51.60;;;;;;5114177;27;20517;-91
2023/05/18 10:28:49;;;;;;;6.55;1.15;;;16.90;51.20;;;;;;5115375;27;20393;-91
2023/05/18 10:31:15;;;;;;;6.05;1.10;;;16.80;50.00;;;;;;5114883;27;20401;-90
2023/05/18 10:33:42;;;;;;;4.32;1.20;;;17.10;49.90;;;;;;5114643;27;20389;-91
2023/05/18 10:36:10;;;;;;;4.87;1.27;;;17.00;53.10;;;;;;5115771;27;20405;-90
2023/05/18 10:38:42;;;;;;;4.43;1.20;;;17.40;48.60;;;;;;5113487;27;20393;-91
2023/05/18 10:41:10;;;;;;;6.55;1.25;;;17.50;50.60;;;;;;5115813;27;20397;-91
2023/05/18 10:43:36;;;;;;;6.35;1.40;;;17.60;50.30;;;;;;5113680;27;20484;-91
2023/05/18 10:46:04;;;;;;;5.15;1.00;;;18.00;50.00;;;;;;5115360;27;20428;-90
2023/05/18 10:48:30;;;;;;;4.15;1.17;;;18.50;49.20;;;;;;5115017;27;20801;-91
2023/05/18 10:50:56;;;;;;;4.80;1.02;;;18.70;47.20;;;;;;5114063;27;20420;-92
2023/05/18 10:53:28;;;;;;;5.88;1.25;;;18.90;47.40;;;;;;5115550;27;20822;-91
2023/05/18 10:55:53;;;;;;;6.72;1.33;;;18.90;47.00;;;;;;5113445;27;20381;-92
2023/05/18 10:58:21;;;;;;;5.47;1.27;;;19.10;47.30;;;;;;5115467;27;20449;-91
2023/05/18 11:00:50;;;;;;;4.93;1.30;;;18.90;45.50;;;;;;5113767;27;20397;-91
2023/05/18 11:03:17;;;;;;;5.90;1.27;;;19.10;47.90;;;;;;5114779;27;20412;-92
2023/05/18 11:05:47;;;;;;;4.50;1.30;;;19.40;46.10;;;;;;5114731;27;20436;-91
2023/05/18 11:08:25;;;;;;;5.53;1.43;;;19.40;46.10;;;;;;5114097;27;20469;-91
2023/05/18 11:11:03;;;;;;;5.78;1.15;;;19.30;46.20;;;;;;5115036;27;20405;-90
2023/05/18 11:13:30;;;;;;;4.77;1.13;;;19.10;46.20;;;;;;5113027;27;20400;-91
2023/05/18 11:15:57;;;;;;;6.70;1.15;;;19.20;45.20;;;;;;5115248;27;20431;-92
2023/05/18 11:18:44;;;;;;;6.03;1.25;;;18.80;46.50;;;;;;5113575;27;20401;-91
2023/05/18 11:21:31;;;;;;;6.20;1.45;;;18.70;44.80;;;;;;5113387;27;20400;-91
2023/05/18 11:24:12;;;;;;;5.25;1.35;;;18.80;49.40;;;;;;5113959;27;20409;-91
2023/05/18 11:26:39;;;;;;;3.88;1.20;;;18.90;48.10;;;;;;5112780;27;20898;-90
2023/05/18 11:29:48;;;;;;;5.93;1.58;;;19.10;47.80;;;;;;5114610;27;20433;-91
2023/05/18 11:32:21;;;;;;;5.35;1.25;;;18.90;45.90;;;;;;5110002;27;20713;-91
2023/05/18 11:34:51;;;;;;;6.80;1.27;;;18.90;46.40;;;;;;5112701;27;20963;-90
2023/05/18 11:37:39;;;;;;;5.03;1.30;;;18.80;46.80;;;;;;5114586;27;20416;-91
2023/05/18 11:40:09;;;;;;;5.32;1.45;;;18.50;47.20;;;;;;5113157;27;20892;-92
2023/05/18 11:42:35;;;;;;;5.70;1.27;;;18.40;48.10;;;;;;5113800;27;20441;-91
2023/05/18 11:45:09;;;;;;;7.77;1.47;;;18.30;49.20;;;;;;5114328;27;20405;-90
2023/05/18 11:47:38;;;;;;;5.72;1.20;;;18.30;50.70;;;;;;5113072;27;20397;-91
2023/05/18 11:50:10;;;;;;;5.28;1.40;;;18.40;50.30;;;;;;5114661;27;20744;-90
2023/05/18 11:52:56;;;;;;;6.35;1.33;;;18.40;48.50;;;;;;5112251;27;20408;-91
2023/05/18 11:55:36;;;;;;;4.78;0.93;;;18.40;50.70;;;;;;5113718;27;20862;-90
2023/05/18 11:58:02;;;;;;;5.97;1.40;;;18.60;48.90;;;;;;5113991;27;20401;-91
2023/05/18 12:00:30;;;;;;;5.20;1.30;;;18.40;47.60;;;;;;5111974;27;20500;-91
2023/05/18 12:02:56;;;;;;;6.65;1.40;;;18.30;50.00;;;;;;5114325;27;20449;-91
2023/05/18 12:05:22;;;;;;;5.95;1.20;;;18.30;50.10;;;;;;5112109;27;20934;-91
2023/05/18 12:07:53;;;;;;;4.63;1.15;;;18.50;51.50;;;;;;5113937;27;20400;-90
2023/05/18 12:10:20;;;;;;;4.10;1.08;;;18.70;51.50;;;;;;5112581;27;20393;-91
2023/05/18 12:12:52;;;;;;;5.27;1.23;;;18.90;51.10;;;;;;5113347;27;20408;-90
2023/05/18 12:15:22;;;;;;;6.72;1.30;;;19.10;49.00;;;;;;5113925;27;20404;-91
2023/05/18 12:17:49;;;;;;;6.07;1.30;;;19.50;49.10;;;;;;5112371;27;20412;-90
2023/05/18 12:20:17;;;;;;;6.07;1.38;;;19.50;50.00;;;;;;5113875;27;20434;-92
2023/05/18 12:22:43;;;;;;;6.70;1.35;;;19.70;48.60;;;;;;5112443;27;20751;-91
2023/05/18 12:25:10;;;;;;;5.32;1.20;;;20.00;49.10;;;;;;5113793;27;20481;-91
2023/05/18 12:27:40;;;;;;;7.88;1.23;;;20.10;49.50;;;;;;5112407;27;20393;-90
2023/05/18 12:30:22;;;;;;;6.03;1.30;;;20.20;47.40;;;;;;5113078;27;20405;-91
2023/05/18 12:32:54;;;;;;;6.18;1.25;;;20.10;47.50;;;;;;5113646;27;20401;-91
2023/05/18 12:35:24;;;;;;;7.43;1.20;;;20.00;48.60;;;;;;5111788;27;20400;-91
2023/05/18 12:37:50;;;;;;;7.22;1.30;;;20.20;46.70;;;;;;5117468;27;20907;-90
2023/05/18 12:40:17;;;;;;;5.70;1.30;;;19.90;45.50;;;;;;5115947;27;20465;-91
2023/05/18 12:42:58;;;;;;;5.85;1.38;;;19.70;47.20;;;;;;5117810;27;20397;-92
2023/05/18 12:45:30;;;;;;;5.60;1.30;;;19.40;47.00;;;;;;5117859;27;20766;-91
2023/05/18 12:48:02;;;;;;;5.28;1.30;;;19.30;47.60;;;;;;5116201;27;20433;-91
2023/05/18 12:50:28;;;;;;;7.03;1.48;;;19.30;49.90;;;;;;5135254;27;20743;-92
2023/05/18 12:52:58;;;;;;;6.63;1.42;;;19.70;48.10;;;;;;5116272;27;20396;-91
2023/05/18 12:55:24;;;;;;;6.90;1.20;;;19.80;49.20;;;;;;5117416;27;20705;-90